sensor_id;sensor_type;location;lat;lon;timestamp;temperature;humidity
44607;DHT22;30315;46.072;14.474;2023-07-02T00:00:08;23.00;87.40
44607;DHT22;30315;46.072;14.474;2023-07-02T00:02:36;23.00;87.60
44607;DHT22;30315;46.072;14.474;2023-07-02T00:05:04;23.00;87.80
44607;DHT22;30315;46.072;14.474;2023-07-02T00:07:31;22.90;88.10
44607;DHT22;30315;46.072;14.474;2023-07-02T00:09:59;22.90;87.50
44607;DHT22;30315;46.072;14.474;2023-07-02T00:12:26;22.90;86.80
44607;DHT22;30315;46.072;14.474;2023-07-02T00:14:53;22.90;86.40
44607;DHT22;30315;46.072;14.474;2023-07-02T00:17:20;22.90;86.60
44607;DHT22;30315;46.072;14.474;2023-07-02T00:19:48;22.90;87.00
44607;DHT22;30315;46.072;14.474;2023-07-02T00:22:19;22.80;86.80
44607;DHT22;30315;46.072;14.474;2023-07-02T00:24:46;22.80;87.60
44607;DHT22;30315;46.072;14.474;2023-07-02T00:27:13;22.80;87.30
44607;DHT22;30315;46.072;14.474;2023-07-02T00:29:40;22.80;87.20
44607;DHT22;30315;46.072;14.474;2023-07-02T00:32:07;22.80;87.50
44607;DHT22;30315;46.072;14.474;2023-07-02T00:34:35;22.80;87.80
44607;DHT22;30315;46.072;14.474;2023-07-02T00:37:01;22.70;87.80
44607;DHT22;30315;46.072;14.474;2023-07-02T00:39:29;22.80;87.50
44607;DHT22;30315;46.072;14.474;2023-07-02T00:42:03;22.70;87.40
44607;DHT22;30315;46.072;14.474;2023-07-02T00:44:31;22.70;88.10
44607;DHT22;30315;46.072;14.474;2023-07-02T00:46:58;22.70;87.50
44607;DHT22;30315;46.072;14.474;2023-07-02T00:49:25;22.70;87.50
44607;DHT22;30315;46.072;14.474;2023-07-02T00:51:53;22.60;87.60
44607;DHT22;30315;46.072;14.474;2023-07-02T00:54:20;22.60;87.40
44607;DHT22;30315;46.072;14.474;2023-07-02T00:56:47;22.60;87.20
44607;DHT22;30315;46.072;14.474;2023-07-02T00:59:15;22.60;87.40
44607;DHT22;30315;46.072;14.474;2023-07-02T01:01:42;22.60;87.40
44607;DHT22;30315;46.072;14.474;2023-07-02T01:04:09;22.50;87.40
44607;DHT22;30315;46.072;14.474;2023-07-02T01:06:37;22.50;87.90
44607;DHT22;30315;46.072;14.474;2023-07-02T01:09:08;22.50;88.20
44607;DHT22;30315;46.072;14.474;2023-07-02T01:16:36;22.60;88.00
44607;DHT22;30315;46.072;14.474;2023-07-02T01:19:05;22.60;87.50
44607;DHT22;30315;46.072;14.474;2023-07-02T01:21:37;22.60;87.50
44607;DHT22;30315;46.072;14.474;2023-07-02T01:24:04;22.50;87.60
44607;DHT22;30315;46.072;14.474;2023-07-02T01:26:32;22.50;87.70
44607;DHT22;30315;46.072;14.474;2023-07-02T01:29:17;22.50;87.90
44607;DHT22;30315;46.072;14.474;2023-07-02T01:31:45;22.50;88.00
44607;DHT22;30315;46.072;14.474;2023-07-02T01:34:13;22.50;88.90
44607;DHT22;30315;46.072;14.474;2023-07-02T01:36:41;22.50;88.50
44607;DHT22;30315;46.072;14.474;2023-07-02T01:39:08;22.50;88.40
44607;DHT22;30315;46.072;14.474;2023-07-02T01:41:49;22.50;88.50
44607;DHT22;30315;46.072;14.474;2023-07-02T01:44:17;22.50;88.40
44607;DHT22;30315;46.072;14.474;2023-07-02T01:46:45;22.50;88.40
44607;DHT22;30315;46.072;14.474;2023-07-02T01:49:16;22.50;88.30
44607;DHT22;30315;46.072;14.474;2023-07-02T01:51:53;22.50;88.40
44607;DHT22;30315;46.072;14.474;2023-07-02T01:54:22;22.50;88.30
44607;DHT22;30315;46.072;14.474;2023-07-02T01:56:50;22.50;88.30
44607;DHT22;30315;46.072;14.474;2023-07-02T01:59:17;22.50;88.40
44607;DHT22;30315;46.072;14.474;2023-07-02T02:01:44;22.50;88.60
44607;DHT22;30315;46.072;14.474;2023-07-02T02:04:12;22.50;88.90
44607;DHT22;30315;46.072;14.474;2023-07-02T02:06:39;22.50;89.10
44607;DHT22;30315;46.072;14.474;2023-07-02T02:09:07;22.50;88.90
44607;DHT22;30315;46.072;14.474;2023-07-02T02:11:42;22.40;88.80
44607;DHT22;30315;46.072;14.474;2023-07-02T02:14:09;22.40;88.40
44607;DHT22;30315;46.072;14.474;2023-07-02T02:16:36;22.40;88.00
44607;DHT22;30315;46.072;14.474;2023-07-02T02:19:04;22.40;88.40
44607;DHT22;30315;46.072;14.474;2023-07-02T02:24:27;22.40;89.50
44607;DHT22;30315;46.072;14.474;2023-07-02T02:26:54;22.40;89.50
44607;DHT22;30315;46.072;14.474;2023-07-02T02:29:21;22.40;89.20
44607;DHT22;30315;46.072;14.474;2023-07-02T02:31:48;22.40;89.60
44607;DHT22;30315;46.072;14.474;2023-07-02T02:34:15;22.40;89.50
44607;DHT22;30315;46.072;14.474;2023-07-02T02:36:42;22.40;89.30
44607;DHT22;30315;46.072;14.474;2023-07-02T02:39:10;22.40;89.10
44607;DHT22;30315;46.072;14.474;2023-07-02T02:41:37;22.40;89.20
44607;DHT22;30315;46.072;14.474;2023-07-02T02:44:04;22.40;88.80
44607;DHT22;30315;46.072;14.474;2023-07-02T02:46:31;22.40;89.00
44607;DHT22;30315;46.072;14.474;2023-07-02T02:48:58;22.40;88.90
44607;DHT22;30315;46.072;14.474;2023-07-02T02:51:25;22.40;89.50
44607;DHT22;30315;46.072;14.474;2023-07-02T02:53:52;22.40;89.70
44607;DHT22;30315;46.072;14.474;2023-07-02T02:56:19;22.40;89.50
44607;DHT22;30315;46.072;14.474;2023-07-02T02:58:46;22.40;89.40
44607;DHT22;30315;46.072;14.474;2023-07-02T03:01:13;22.40;89.30
44607;DHT22;30315;46.072;14.474;2023-07-02T03:03:42;22.40;88.80
44607;DHT22;30315;46.072;14.474;2023-07-02T03:06:15;22.40;88.50
44607;DHT22;30315;46.072;14.474;2023-07-02T03:08:42;22.40;88.50
44607;DHT22;30315;46.072;14.474;2023-07-02T03:11:09;22.40;88.60
44607;DHT22;30315;46.072;14.474;2023-07-02T03:13:36;22.40;88.60
44607;DHT22;30315;46.072;14.474;2023-07-02T03:16:04;22.40;88.50
44607;DHT22;30315;46.072;14.474;2023-07-02T03:18:31;22.40;88.60
44607;DHT22;30315;46.072;14.474;2023-07-02T03:20:59;22.30;88.40
44607;DHT22;30315;46.072;14.474;2023-07-02T03:23:26;22.30;88.40
44607;DHT22;30315;46.072;14.474;2023-07-02T03:25:52;22.40;89.10
44607;DHT22;30315;46.072;14.474;2023-07-02T03:28:19;22.30;88.30
44607;DHT22;30315;46.072;14.474;2023-07-02T03:30:46;22.30;88.10
44607;DHT22;30315;46.072;14.474;2023-07-02T03:33:14;22.30;88.00
44607;DHT22;30315;46.072;14.474;2023-07-02T03:35:41;22.30;88.10
44607;DHT22;30315;46.072;14.474;2023-07-02T03:38:08;22.30;88.10
44607;DHT22;30315;46.072;14.474;2023-07-02T03:40:35;22.30;88.50
44607;DHT22;30315;46.072;14.474;2023-07-02T03:43:02;22.30;88.60
44607;DHT22;30315;46.072;14.474;2023-07-02T03:45:29;22.30;88.70
44607;DHT22;30315;46.072;14.474;2023-07-02T03:47:56;22.30;88.80
44607;DHT22;30315;46.072;14.474;2023-07-02T03:50:23;22.30;88.80
44607;DHT22;30315;46.072;14.474;2023-07-02T03:52:50;22.30;89.10
44607;DHT22;30315;46.072;14.474;2023-07-02T03:55:17;22.30;88.80
44607;DHT22;30315;46.072;14.474;2023-07-02T03:57:44;22.30;88.70
44607;DHT22;30315;46.072;14.474;2023-07-02T04:00:11;22.30;88.70
44607;DHT22;30315;46.072;14.474;2023-07-02T04:02:41;22.30;88.70
44607;DHT22;30315;46.072;14.474;2023-07-02T04:05:08;22.20;88.40
44607;DHT22;30315;46.072;14.474;2023-07-02T04:07:35;22.30;88.60
44607;DHT22;30315;46.072;14.474;2023-07-02T04:10:02;22.30;88.40
44607;DHT22;30315;46.072;14.474;2023-07-02T04:12:30;22.30;88.50
44607;DHT22;30315;46.072;14.474;2023-07-02T04:14:57;22.30;88.70
44607;DHT22;30315;46.072;14.474;2023-07-02T04:17:24;22.30;88.90
44607;DHT22;30315;46.072;14.474;2023-07-02T04:19:54;22.30;89.00
44607;DHT22;30315;46.072;14.474;2023-07-02T04:22:21;22.30;89.30
44607;DHT22;30315;46.072;14.474;2023-07-02T04:24:48;22.40;89.50
44607;DHT22;30315;46.072;14.474;2023-07-02T04:27:17;22.40;89.40
44607;DHT22;30315;46.072;14.474;2023-07-02T04:30:05;22.40;89.40
44607;DHT22;30315;46.072;14.474;2023-07-02T04:32:33;22.40;89.70
44607;DHT22;30315;46.072;14.474;2023-07-02T04:35:00;22.40;89.90
44607;DHT22;30315;46.072;14.474;2023-07-02T04:37:27;22.50;90.00
44607;DHT22;30315;46.072;14.474;2023-07-02T04:39:55;22.50;90.00
44607;DHT22;30315;46.072;14.474;2023-07-02T04:42:22;22.50;90.20
44607;DHT22;30315;46.072;14.474;2023-07-02T04:44:54;22.50;89.50
44607;DHT22;30315;46.072;14.474;2023-07-02T04:47:21;22.60;89.20
44607;DHT22;30315;46.072;14.474;2023-07-02T04:49:49;22.60;88.80
44607;DHT22;30315;46.072;14.474;2023-07-02T04:52:15;22.60;88.80
44607;DHT22;30315;46.072;14.474;2023-07-02T04:54:42;22.60;89.40
44607;DHT22;30315;46.072;14.474;2023-07-02T04:57:09;22.70;89.50
44607;DHT22;30315;46.072;14.474;2023-07-02T04:59:36;22.60;89.30
44607;DHT22;30315;46.072;14.474;2023-07-02T05:02:03;22.60;89.40
44607;DHT22;30315;46.072;14.474;2023-07-02T05:04:30;22.60;89.80
44607;DHT22;30315;46.072;14.474;2023-07-02T05:06:57;22.60;88.80
44607;DHT22;30315;46.072;14.474;2023-07-02T05:09:24;22.60;88.70
44607;DHT22;30315;46.072;14.474;2023-07-02T05:11:51;22.60;89.20
44607;DHT22;30315;46.072;14.474;2023-07-02T05:14:18;22.50;88.90
44607;DHT22;30315;46.072;14.474;2023-07-02T05:16:45;22.50;88.50
44607;DHT22;30315;46.072;14.474;2023-07-02T05:19:12;22.40;89.10
44607;DHT22;30315;46.072;14.474;2023-07-02T05:21:38;22.50;89.50
44607;DHT22;30315;46.072;14.474;2023-07-02T05:24:06;22.50;89.60
44607;DHT22;30315;46.072;14.474;2023-07-02T05:26:33;22.50;89.80
44607;DHT22;30315;46.072;14.474;2023-07-02T05:29:00;22.40;89.90
44607;DHT22;30315;46.072;14.474;2023-07-02T05:31:27;22.50;90.00
44607;DHT22;30315;46.072;14.474;2023-07-02T05:33:54;22.50;90.10
44607;DHT22;30315;46.072;14.474;2023-07-02T05:36:21;22.50;90.10
44607;DHT22;30315;46.072;14.474;2023-07-02T05:38:48;22.50;90.10
44607;DHT22;30315;46.072;14.474;2023-07-02T05:41:21;22.50;90.10
44607;DHT22;30315;46.072;14.474;2023-07-02T05:43:48;22.50;90.00
44607;DHT22;30315;46.072;14.474;2023-07-02T05:46:15;22.50;90.10
44607;DHT22;30315;46.072;14.474;2023-07-02T05:48:42;22.60;90.30
44607;DHT22;30315;46.072;14.474;2023-07-02T05:51:09;22.60;90.20
44607;DHT22;30315;46.072;14.474;2023-07-02T05:53:37;22.60;90.10
44607;DHT22;30315;46.072;14.474;2023-07-02T05:56:04;22.60;90.30
44607;DHT22;30315;46.072;14.474;2023-07-02T05:58:31;22.60;90.10
44607;DHT22;30315;46.072;14.474;2023-07-02T06:01:14;22.60;90.00
44607;DHT22;30315;46.072;14.474;2023-07-02T06:03:41;22.60;90.00
44607;DHT22;30315;46.072;14.474;2023-07-02T06:06:09;22.60;89.90
44607;DHT22;30315;46.072;14.474;2023-07-02T06:08:37;22.70;89.80
44607;DHT22;30315;46.072;14.474;2023-07-02T06:11:04;22.60;89.60
44607;DHT22;30315;46.072;14.474;2023-07-02T06:13:32;22.70;89.30
44607;DHT22;30315;46.072;14.474;2023-07-02T06:15:59;22.70;89.20
44607;DHT22;30315;46.072;14.474;2023-07-02T06:18:25;22.60;89.50
44607;DHT22;30315;46.072;14.474;2023-07-02T06:20:53;22.60;89.70
44607;DHT22;30315;46.072;14.474;2023-07-02T06:23:19;22.60;89.80
44607;DHT22;30315;46.072;14.474;2023-07-02T06:25:46;22.70;90.00
44607;DHT22;30315;46.072;14.474;2023-07-02T06:28:13;22.70;90.00
44607;DHT22;30315;46.072;14.474;2023-07-02T06:30:40;22.70;90.00
44607;DHT22;30315;46.072;14.474;2023-07-02T06:33:07;22.70;90.10
44607;DHT22;30315;46.072;14.474;2023-07-02T06:35:34;22.80;90.10
44607;DHT22;30315;46.072;14.474;2023-07-02T06:38:01;22.80;90.00
44607;DHT22;30315;46.072;14.474;2023-07-02T06:40:28;22.80;89.60
44607;DHT22;30315;46.072;14.474;2023-07-02T06:42:55;22.90;89.30
44607;DHT22;30315;46.072;14.474;2023-07-02T06:45:21;22.90;89.00
44607;DHT22;30315;46.072;14.474;2023-07-02T06:47:49;22.90;88.80
44607;DHT22;30315;46.072;14.474;2023-07-02T06:50:16;22.90;88.80
44607;DHT22;30315;46.072;14.474;2023-07-02T06:52:43;22.90;88.90
44607;DHT22;30315;46.072;14.474;2023-07-02T06:55:10;23.00;89.00
44607;DHT22;30315;46.072;14.474;2023-07-02T06:57:44;23.10;89.10
44607;DHT22;30315;46.072;14.474;2023-07-02T07:00:15;23.10;89.20
44607;DHT22;30315;46.072;14.474;2023-07-02T07:02:42;23.10;88.90
44607;DHT22;30315;46.072;14.474;2023-07-02T07:05:09;23.20;88.50
44607;DHT22;30315;46.072;14.474;2023-07-02T07:07:36;23.30;87.80
44607;DHT22;30315;46.072;14.474;2023-07-02T07:10:04;23.30;87.60
44607;DHT22;30315;46.072;14.474;2023-07-02T07:12:31;23.40;87.40
44607;DHT22;30315;46.072;14.474;2023-07-02T07:14:58;23.50;87.10
44607;DHT22;30315;46.072;14.474;2023-07-02T07:17:25;23.50;86.50
44607;DHT22;30315;46.072;14.474;2023-07-02T07:19:52;23.50;86.30
44607;DHT22;30315;46.072;14.474;2023-07-02T07:22:19;23.60;86.20
44607;DHT22;30315;46.072;14.474;2023-07-02T07:24:46;23.70;86.60
44607;DHT22;30315;46.072;14.474;2023-07-02T07:27:13;23.70;85.40
44607;DHT22;30315;46.072;14.474;2023-07-02T07:29:40;23.70;84.50
44607;DHT22;30315;46.072;14.474;2023-07-02T07:32:07;23.70;84.60
44607;DHT22;30315;46.072;14.474;2023-07-02T07:34:34;23.70;84.70
44607;DHT22;30315;46.072;14.474;2023-07-02T07:37:01;23.70;83.90
44607;DHT22;30315;46.072;14.474;2023-07-02T07:39:28;23.60;84.00
44607;DHT22;30315;46.072;14.474;2023-07-02T07:41:54;23.60;83.60
44607;DHT22;30315;46.072;14.474;2023-07-02T07:44:21;23.60;83.90
44607;DHT22;30315;46.072;14.474;2023-07-02T07:46:48;23.60;83.90
44607;DHT22;30315;46.072;14.474;2023-07-02T07:49:15;23.50;84.50
44607;DHT22;30315;46.072;14.474;2023-07-02T07:51:42;23.50;84.70
44607;DHT22;30315;46.072;14.474;2023-07-02T07:54:09;23.60;84.20
44607;DHT22;30315;46.072;14.474;2023-07-02T07:56:36;23.60;84.20
44607;DHT22;30315;46.072;14.474;2023-07-02T07:59:03;23.60;84.40
44607;DHT22;30315;46.072;14.474;2023-07-02T08:01:30;23.60;84.40
44607;DHT22;30315;46.072;14.474;2023-07-02T08:03:57;23.60;84.00
44607;DHT22;30315;46.072;14.474;2023-07-02T08:06:24;23.60;83.20
44607;DHT22;30315;46.072;14.474;2023-07-02T08:08:51;23.60;83.10
44607;DHT22;30315;46.072;14.474;2023-07-02T08:11:18;23.70;83.00
44607;DHT22;30315;46.072;14.474;2023-07-02T08:13:45;23.70;83.10
44607;DHT22;30315;46.072;14.474;2023-07-02T08:16:12;23.80;83.40
44607;DHT22;30315;46.072;14.474;2023-07-02T08:18:40;23.80;83.20
44607;DHT22;30315;46.072;14.474;2023-07-02T08:21:07;23.80;83.20
44607;DHT22;30315;46.072;14.474;2023-07-02T08:23:34;23.90;83.30
44607;DHT22;30315;46.072;14.474;2023-07-02T08:26:01;23.90;82.70
44607;DHT22;30315;46.072;14.474;2023-07-02T08:28:29;24.00;83.00
44607;DHT22;30315;46.072;14.474;2023-07-02T08:30:56;24.00;83.20
44607;DHT22;30315;46.072;14.474;2023-07-02T08:33:23;24.00;83.00
44607;DHT22;30315;46.072;14.474;2023-07-02T08:35:50;24.10;82.90
44607;DHT22;30315;46.072;14.474;2023-07-02T08:38:17;24.10;82.60
44607;DHT22;30315;46.072;14.474;2023-07-02T08:40:44;24.10;82.50
44607;DHT22;30315;46.072;14.474;2023-07-02T08:43:11;24.10;82.40
44607;DHT22;30315;46.072;14.474;2023-07-02T08:45:40;24.10;82.40
44607;DHT22;30315;46.072;14.474;2023-07-02T08:48:08;24.20;81.90
44607;DHT22;30315;46.072;14.474;2023-07-02T08:50:37;24.20;81.40
44607;DHT22;30315;46.072;14.474;2023-07-02T08:53:04;24.20;80.70
44607;DHT22;30315;46.072;14.474;2023-07-02T08:55:31;24.20;80.90
44607;DHT22;30315;46.072;14.474;2023-07-02T08:57:58;24.20;80.60
44607;DHT22;30315;46.072;14.474;2023-07-02T09:00:28;24.20;80.50
44607;DHT22;30315;46.072;14.474;2023-07-02T09:02:58;24.30;80.40
44607;DHT22;30315;46.072;14.474;2023-07-02T09:05:25;24.30;80.60
44607;DHT22;30315;46.072;14.474;2023-07-02T09:07:51;24.40;80.70
44607;DHT22;30315;46.072;14.474;2023-07-02T09:10:31;24.40;80.60
44607;DHT22;30315;46.072;14.474;2023-07-02T09:13:05;24.40;79.90
44607;DHT22;30315;46.072;14.474;2023-07-02T09:15:37;24.50;79.90
44607;DHT22;30315;46.072;14.474;2023-07-02T09:18:21;24.60;79.90
44607;DHT22;30315;46.072;14.474;2023-07-02T09:20:54;24.60;79.80
44607;DHT22;30315;46.072;14.474;2023-07-02T09:23:21;24.60;79.70
44607;DHT22;30315;46.072;14.474;2023-07-02T09:25:48;24.70;79.60
44607;DHT22;30315;46.072;14.474;2023-07-02T09:28:22;24.70;79.40
44607;DHT22;30315;46.072;14.474;2023-07-02T09:30:56;24.80;78.90
44607;DHT22;30315;46.072;14.474;2023-07-02T09:33:25;24.90;79.30
44607;DHT22;30315;46.072;14.474;2023-07-02T09:35:52;24.90;78.90
44607;DHT22;30315;46.072;14.474;2023-07-02T09:38:20;25.00;78.70
44607;DHT22;30315;46.072;14.474;2023-07-02T09:40:51;25.10;77.80
44607;DHT22;30315;46.072;14.474;2023-07-02T09:43:19;25.20;77.10
44607;DHT22;30315;46.072;14.474;2023-07-02T09:45:48;25.20;75.60
44607;DHT22;30315;46.072;14.474;2023-07-02T09:48:17;25.30;74.40
44607;DHT22;30315;46.072;14.474;2023-07-02T09:50:45;25.30;73.90
44607;DHT22;30315;46.072;14.474;2023-07-02T09:53:14;25.40;73.80
44607;DHT22;30315;46.072;14.474;2023-07-02T09:55:44;25.50;73.20
44607;DHT22;30315;46.072;14.474;2023-07-02T09:58:11;25.50;72.70
44607;DHT22;30315;46.072;14.474;2023-07-02T10:00:39;25.60;72.50
44607;DHT22;30315;46.072;14.474;2023-07-02T10:03:07;25.60;72.30
44607;DHT22;30315;46.072;14.474;2023-07-02T10:05:34;25.70;72.20
44607;DHT22;30315;46.072;14.474;2023-07-02T10:08:15;25.80;72.00
44607;DHT22;30315;46.072;14.474;2023-07-02T10:10:45;25.90;70.00
44607;DHT22;30315;46.072;14.474;2023-07-02T10:13:12;26.00;69.30
44607;DHT22;30315;46.072;14.474;2023-07-02T10:15:39;26.10;68.90
44607;DHT22;30315;46.072;14.474;2023-07-02T10:18:06;26.10;68.50
44607;DHT22;30315;46.072;14.474;2023-07-02T10:20:38;26.10;68.40
44607;DHT22;30315;46.072;14.474;2023-07-02T10:23:07;26.20;68.10
44607;DHT22;30315;46.072;14.474;2023-07-02T10:25:35;26.30;67.00
44607;DHT22;30315;46.072;14.474;2023-07-02T10:28:13;26.40;66.90
44607;DHT22;30315;46.072;14.474;2023-07-02T10:30:42;26.50;66.80
44607;DHT22;30315;46.072;14.474;2023-07-02T10:33:11;26.50;66.70
44607;DHT22;30315;46.072;14.474;2023-07-02T10:35:42;26.60;65.20
44607;DHT22;30315;46.072;14.474;2023-07-02T10:40:45;26.80;63.70
44607;DHT22;30315;46.072;14.474;2023-07-02T10:43:13;27.00;64.50
44607;DHT22;30315;46.072;14.474;2023-07-02T10:45:40;27.10;64.70
44607;DHT22;30315;46.072;14.474;2023-07-02T10:48:10;27.30;65.00
44607;DHT22;30315;46.072;14.474;2023-07-02T10:50:37;27.30;62.60
44607;DHT22;30315;46.072;14.474;2023-07-02T10:53:04;27.40;60.20
44607;DHT22;30315;46.072;14.474;2023-07-02T10:55:31;27.40;59.60
44607;DHT22;30315;46.072;14.474;2023-07-02T10:58:06;27.50;58.90
44607;DHT22;30315;46.072;14.474;2023-07-02T11:00:43;27.60;58.60
44607;DHT22;30315;46.072;14.474;2023-07-02T11:03:21;27.70;58.20
44607;DHT22;30315;46.072;14.474;2023-07-02T11:05:49;27.80;58.40
44607;DHT22;30315;46.072;14.474;2023-07-02T11:08:17;27.90;57.90
44607;DHT22;30315;46.072;14.474;2023-07-02T11:10:44;28.00;58.00
44607;DHT22;30315;46.072;14.474;2023-07-02T11:15:42;28.20;57.00
44607;DHT22;30315;46.072;14.474;2023-07-02T11:18:14;28.30;56.00
44607;DHT22;30315;46.072;14.474;2023-07-02T11:20:43;28.30;55.90
44607;DHT22;30315;46.072;14.474;2023-07-02T11:25:59;28.40;55.70
44607;DHT22;30315;46.072;14.474;2023-07-02T11:28:27;28.50;56.00
44607;DHT22;30315;46.072;14.474;2023-07-02T11:30:55;28.60;55.80
44607;DHT22;30315;46.072;14.474;2023-07-02T11:33:39;28.70;55.60
44607;DHT22;30315;46.072;14.474;2023-07-02T11:36:08;28.80;54.90
44607;DHT22;30315;46.072;14.474;2023-07-02T11:38:46;28.90;53.50
44607;DHT22;30315;46.072;14.474;2023-07-02T11:41:14;28.90;53.00
44607;DHT22;30315;46.072;14.474;2023-07-02T11:43:41;29.00;52.90
44607;DHT22;30315;46.072;14.474;2023-07-02T11:46:08;29.20;51.80
44607;DHT22;30315;46.072;14.474;2023-07-02T11:48:35;29.20;51.90
44607;DHT22;30315;46.072;14.474;2023-07-02T11:51:01;29.20;51.60
44607;DHT22;30315;46.072;14.474;2023-07-02T11:53:28;29.20;51.10
44607;DHT22;30315;46.072;14.474;2023-07-02T11:55:55;29.20;50.70
44607;DHT22;30315;46.072;14.474;2023-07-02T11:58:22;29.10;51.40
44607;DHT22;30315;46.072;14.474;2023-07-02T12:00:49;29.10;51.50
44607;DHT22;30315;46.072;14.474;2023-07-02T12:03:16;29.10;51.10
44607;DHT22;30315;46.072;14.474;2023-07-02T12:05:43;29.10;51.30
44607;DHT22;30315;46.072;14.474;2023-07-02T12:08:10;29.10;50.80
44607;DHT22;30315;46.072;14.474;2023-07-02T12:10:37;29.00;51.20
44607;DHT22;30315;46.072;14.474;2023-07-02T12:13:05;29.00;51.00
44607;DHT22;30315;46.072;14.474;2023-07-02T12:15:31;29.10;50.40
44607;DHT22;30315;46.072;14.474;2023-07-02T12:17:58;29.10;50.40
44607;DHT22;30315;46.072;14.474;2023-07-02T12:20:25;29.10;50.90
44607;DHT22;30315;46.072;14.474;2023-07-02T12:22:52;29.10;50.50
44607;DHT22;30315;46.072;14.474;2023-07-02T12:25:20;29.10;51.20
44607;DHT22;30315;46.072;14.474;2023-07-02T12:27:46;29.10;52.00
44607;DHT22;30315;46.072;14.474;2023-07-02T12:30:13;29.20;52.10
44607;DHT22;30315;46.072;14.474;2023-07-02T12:32:44;29.20;52.20
44607;DHT22;30315;46.072;14.474;2023-07-02T12:35:12;29.10;51.20
44607;DHT22;30315;46.072;14.474;2023-07-02T12:37:46;29.10;51.40
44607;DHT22;30315;46.072;14.474;2023-07-02T12:40:14;29.10;52.20
44607;DHT22;30315;46.072;14.474;2023-07-02T12:42:41;29.10;52.80
44607;DHT22;30315;46.072;14.474;2023-07-02T12:45:09;29.20;52.40
44607;DHT22;30315;46.072;14.474;2023-07-02T12:47:39;29.30;53.00
44607;DHT22;30315;46.072;14.474;2023-07-02T12:50:07;29.40;52.80
44607;DHT22;30315;46.072;14.474;2023-07-02T12:52:34;29.50;52.00
44607;DHT22;30315;46.072;14.474;2023-07-02T12:55:02;29.60;51.20
44607;DHT22;30315;46.072;14.474;2023-07-02T12:57:29;29.70;51.50
44607;DHT22;30315;46.072;14.474;2023-07-02T12:59:56;29.80;51.70
44607;DHT22;30315;46.072;14.474;2023-07-02T13:02:24;30.00;50.90
44607;DHT22;30315;46.072;14.474;2023-07-02T13:04:51;30.10;50.10
44607;DHT22;30315;46.072;14.474;2023-07-02T13:07:18;30.30;50.10
44607;DHT22;30315;46.072;14.474;2023-07-02T13:09:45;30.50;50.30
44607;DHT22;30315;46.072;14.474;2023-07-02T13:12:12;30.60;51.30
44607;DHT22;30315;46.072;14.474;2023-07-02T13:14:39;30.80;50.10
44607;DHT22;30315;46.072;14.474;2023-07-02T13:17:06;30.90;50.00
44607;DHT22;30315;46.072;14.474;2023-07-02T13:19:33;31.00;49.50
44607;DHT22;30315;46.072;14.474;2023-07-02T13:22:02;31.10;50.10
44607;DHT22;30315;46.072;14.474;2023-07-02T13:24:33;31.30;50.60
44607;DHT22;30315;46.072;14.474;2023-07-02T13:27:09;31.40;50.40
44607;DHT22;30315;46.072;14.474;2023-07-02T13:29:37;31.40;48.80
44607;DHT22;30315;46.072;14.474;2023-07-02T13:32:05;31.40;47.80
44607;DHT22;30315;46.072;14.474;2023-07-02T13:34:32;31.20;47.00
44607;DHT22;30315;46.072;14.474;2023-07-02T13:36:59;31.10;47.30
44607;DHT22;30315;46.072;14.474;2023-07-02T13:39:26;31.00;47.40
44607;DHT22;30315;46.072;14.474;2023-07-02T13:41:53;30.80;47.70
44607;DHT22;30315;46.072;14.474;2023-07-02T13:44:20;30.70;47.90
44607;DHT22;30315;46.072;14.474;2023-07-02T13:46:47;30.50;47.80
44607;DHT22;30315;46.072;14.474;2023-07-02T13:49:15;30.40;48.50
44607;DHT22;30315;46.072;14.474;2023-07-02T13:51:41;30.20;48.70
44607;DHT22;30315;46.072;14.474;2023-07-02T13:54:12;30.00;48.20
44607;DHT22;30315;46.072;14.474;2023-07-02T13:56:41;29.90;48.60
44607;DHT22;30315;46.072;14.474;2023-07-02T13:59:08;29.80;49.10
44607;DHT22;30315;46.072;14.474;2023-07-02T14:01:35;29.70;49.50
44607;DHT22;30315;46.072;14.474;2023-07-02T14:04:03;29.60;49.80
44607;DHT22;30315;46.072;14.474;2023-07-02T14:06:30;29.50;50.40
44607;DHT22;30315;46.072;14.474;2023-07-02T14:08:58;29.40;50.80
44607;DHT22;30315;46.072;14.474;2023-07-02T14:11:26;29.30;50.90
44607;DHT22;30315;46.072;14.474;2023-07-02T14:13:55;29.20;51.60
44607;DHT22;30315;46.072;14.474;2023-07-02T14:16:22;29.20;52.10
44607;DHT22;30315;46.072;14.474;2023-07-02T14:18:51;29.10;52.90
44607;DHT22;30315;46.072;14.474;2023-07-02T14:21:18;29.10;53.60
44607;DHT22;30315;46.072;14.474;2023-07-02T14:23:45;29.00;54.10
44607;DHT22;30315;46.072;14.474;2023-07-02T14:26:12;29.10;55.20
44607;DHT22;30315;46.072;14.474;2023-07-02T14:28:39;29.10;56.00
44607;DHT22;30315;46.072;14.474;2023-07-02T14:31:06;29.10;55.30
44607;DHT22;30315;46.072;14.474;2023-07-02T14:33:35;29.10;55.30
44607;DHT22;30315;46.072;14.474;2023-07-02T14:36:03;29.00;56.00
44607;DHT22;30315;46.072;14.474;2023-07-02T14:38:30;28.80;56.70
44607;DHT22;30315;46.072;14.474;2023-07-02T14:40:57;28.70;57.40
44607;DHT22;30315;46.072;14.474;2023-07-02T14:43:26;28.70;57.90
44607;DHT22;30315;46.072;14.474;2023-07-02T14:45:55;28.60;58.00
44607;DHT22;30315;46.072;14.474;2023-07-02T14:48:22;28.40;58.50
44607;DHT22;30315;46.072;14.474;2023-07-02T14:50:57;28.30;59.20
44607;DHT22;30315;46.072;14.474;2023-07-02T14:53:26;28.30;59.50
44607;DHT22;30315;46.072;14.474;2023-07-02T14:55:59;28.30;59.80
44607;DHT22;30315;46.072;14.474;2023-07-02T14:58:27;28.30;59.90
44607;DHT22;30315;46.072;14.474;2023-07-02T15:00:56;28.40;60.70
44607;DHT22;30315;46.072;14.474;2023-07-02T15:03:24;28.40;60.60
44607;DHT22;30315;46.072;14.474;2023-07-02T15:05:52;28.50;60.50
44607;DHT22;30315;46.072;14.474;2023-07-02T15:08:21;28.50;61.00
44607;DHT22;30315;46.072;14.474;2023-07-02T15:10:50;28.70;61.40
44607;DHT22;30315;46.072;14.474;2023-07-02T15:13:18;28.80;62.20
44607;DHT22;30315;46.072;14.474;2023-07-02T15:15:49;28.90;61.90
44607;DHT22;30315;46.072;14.474;2023-07-02T15:18:16;28.90;60.80
44607;DHT22;30315;46.072;14.474;2023-07-02T15:20:44;29.00;61.00
44607;DHT22;30315;46.072;14.474;2023-07-02T15:23:12;29.10;61.00
44607;DHT22;30315;46.072;14.474;2023-07-02T15:25:39;29.10;61.10
44607;DHT22;30315;46.072;14.474;2023-07-02T15:28:06;29.20;61.20
44607;DHT22;30315;46.072;14.474;2023-07-02T15:30:38;29.30;60.90
44607;DHT22;30315;46.072;14.474;2023-07-02T15:33:05;29.30;61.10
44607;DHT22;30315;46.072;14.474;2023-07-02T15:35:32;29.30;61.30